createdAt,value
2022-09-17T00:01:43.943Z,11.30
2022-09-17T00:04:13.850Z,11.30
2022-09-17T00:06:42.126Z,11.30
2022-09-17T00:09:11.003Z,11.30
2022-09-17T00:11:41.335Z,11.20
2022-09-17T00:14:14.677Z,11.20
2022-09-17T00:16:45.933Z,11.20
2022-09-17T00:19:18.249Z,11.30
2022-09-17T00:21:47.405Z,11.30
2022-09-17T00:24:17.654Z,11.40
2022-09-17T00:26:46.034Z,11.40
2022-09-17T00:29:15.041Z,11.40
2022-09-17T00:31:44.025Z,11.30
2022-09-17T00:34:12.359Z,11.40
2022-09-17T00:36:42.720Z,11.30
2022-09-17T00:39:12.803Z,11.30
2022-09-17T00:41:41.566Z,11.30
2022-09-17T00:44:46.114Z,11.30
2022-09-17T00:47:23.316Z,11.30
2022-09-17T00:49:55.616Z,11.30
2022-09-17T00:52:29.728Z,11.30
2022-09-17T00:55:02.376Z,11.30
2022-09-17T00:57:33.116Z,11.20
2022-09-17T01:00:01.877Z,11.30
2022-09-17T01:02:32.106Z,11.30
2022-09-17T01:05:00.349Z,11.30
2022-09-17T01:07:45.533Z,11.20
2022-09-17T01:10:29.574Z,11.30
2022-09-17T01:13:15.121Z,11.20
2022-09-17T01:15:47.418Z,11.20
2022-09-17T01:18:33.537Z,11.20
2022-09-17T01:21:34.142Z,11.20
2022-09-17T01:24:17.661Z,11.20
2022-09-17T01:27:30.649Z,11.20
2022-09-17T01:30:21.973Z,11.20
2022-09-17T01:32:58.785Z,11.30
2022-09-17T01:35:36.335Z,11.30
2022-09-17T01:38:12.473Z,11.30
2022-09-17T01:40:48.043Z,11.30
2022-09-17T01:43:24.601Z,11.40
2022-09-17T01:45:56.953Z,11.40
2022-09-17T01:48:31.081Z,11.40
2022-09-17T01:51:09.513Z,11.40
2022-09-17T01:53:45.674Z,11.30
2022-09-17T01:56:19.305Z,11.30
2022-09-17T01:58:53.821Z,11.30
2022-09-17T02:01:25.983Z,11.30
2022-09-17T02:04:04.506Z,11.30
2022-09-17T02:06:37.463Z,11.20
2022-09-17T02:09:15.361Z,11.20
2022-09-17T02:11:48.326Z,11.20
2022-09-17T02:14:21.712Z,11.20
2022-09-17T02:16:53.982Z,11.20
2022-09-17T02:19:28.809Z,11.20
2022-09-17T02:22:04.452Z,11.10
2022-09-17T02:24:38.981Z,11.10
2022-09-17T02:27:13.346Z,11.10
2022-09-17T02:29:44.807Z,11.00
2022-09-17T02:32:13.725Z,11.00
2022-09-17T02:34:43.818Z,11.00
2022-09-17T02:37:12.890Z,11.00
2022-09-17T02:39:41.482Z,11.00
2022-09-17T02:42:20.057Z,11.00
2022-09-17T02:44:59.109Z,10.90
2022-09-17T02:47:57.932Z,11.00
2022-09-17T02:50:38.716Z,11.00
2022-09-17T02:53:17.801Z,11.00
2022-09-17T02:55:52.790Z,11.00
2022-09-17T02:58:27.312Z,11.00
2022-09-17T03:00:58.585Z,10.90
2022-09-17T03:03:32.943Z,11.00
2022-09-17T03:06:02.906Z,11.00
2022-09-17T03:08:37.077Z,11.00
2022-09-17T03:11:06.391Z,10.90
2022-09-17T03:13:35.284Z,10.90
2022-09-17T03:16:04.410Z,10.90
2022-09-17T03:18:34.182Z,10.90
2022-09-17T03:21:03.871Z,10.80
2022-09-17T03:23:33.166Z,10.80
2022-09-17T03:26:01.489Z,10.80
2022-09-17T03:28:30.187Z,10.80
2022-09-17T03:30:58.553Z,10.70
2022-09-17T03:33:26.974Z,10.70
2022-09-17T03:35:55.281Z,10.70
2022-09-17T03:38:25.262Z,10.60
2022-09-17T03:41:03.440Z,10.60
2022-09-17T03:44:23.889Z,10.60
2022-09-17T03:46:52.724Z,10.60
2022-09-17T03:49:21.589Z,10.60
2022-09-17T03:51:49.834Z,10.60
2022-09-17T03:54:20.104Z,10.60
2022-09-17T03:56:48.393Z,10.60
2022-09-17T03:59:17.080Z,10.50
2022-09-17T04:01:45.682Z,10.50
2022-09-17T04:04:14.083Z,10.40
2022-09-17T04:06:42.719Z,10.40
2022-09-17T04:09:11.019Z,10.30
2022-09-17T04:11:41.140Z,10.30
2022-09-17T04:14:09.433Z,10.30
2022-09-17T04:16:37.923Z,10.30
2022-09-17T04:19:06.463Z,10.30
2022-09-17T04:21:34.986Z,10.20
2022-09-17T04:24:03.539Z,10.20
2022-09-17T04:26:31.974Z,10.20
2022-09-17T04:29:02.307Z,10.10
2022-09-17T04:31:30.670Z,10.10
2022-09-17T04:33:59.219Z,10.20
2022-09-17T04:36:27.493Z,10.20
2022-09-17T04:38:56.242Z,10.30
2022-09-17T04:41:24.632Z,10.30
2022-09-17T04:43:53.685Z,10.30
2022-09-17T04:46:23.461Z,10.20
2022-09-17T04:48:52.192Z,10.20
2022-09-17T04:51:20.562Z,10.10
2022-09-17T04:53:49.305Z,10.10
2022-09-17T04:56:17.976Z,10.10
2022-09-17T04:58:46.547Z,10.10
2022-09-17T05:01:15.237Z,10.10
2022-09-17T05:03:45.422Z,10.00
2022-09-17T05:06:14.098Z,10.00
2022-09-17T05:08:42.777Z,10.10
2022-09-17T05:11:11.325Z,10.10
2022-09-17T05:13:39.616Z,10.10
2022-09-17T05:16:08.343Z,10.10
2022-09-17T05:18:36.729Z,10.10
2022-09-17T05:21:07.232Z,10.10
2022-09-17T05:23:35.627Z,10.10
2022-09-17T05:26:04.246Z,10.10
2022-09-17T05:28:32.656Z,10.10
2022-09-17T05:31:01.698Z,10.10
2022-09-17T05:33:30.383Z,10.10
2022-09-17T05:35:58.760Z,10.20
2022-09-17T05:38:28.752Z,10.20
2022-09-17T05:40:57.400Z,10.20
2022-09-17T05:43:25.788Z,10.30
2022-09-17T05:45:55.074Z,10.30
2022-09-17T05:48:23.339Z,10.20
2022-09-17T05:50:52.160Z,10.30
2022-09-17T05:53:20.669Z,10.30
2022-09-17T05:55:51.186Z,10.30
2022-09-17T05:58:20.621Z,10.30
2022-09-17T06:00:49.562Z,10.30
2022-09-17T06:03:19.667Z,10.30
2022-09-17T06:05:55.097Z,10.20
2022-09-17T06:08:23.527Z,10.30
2022-09-17T06:10:53.378Z,10.30
2022-09-17T06:13:22.580Z,10.30
2022-09-17T06:15:52.558Z,10.30
2022-09-17T06:18:22.278Z,10.30
2022-09-17T06:20:55.525Z,10.30
2022-09-17T06:23:24.996Z,10.30
2022-09-17T06:25:57.317Z,10.30
2022-09-17T06:28:26.716Z,10.20
2022-09-17T06:30:57.190Z,10.20
2022-09-17T06:33:27.059Z,10.30
2022-09-17T06:36:00.610Z,10.20
2022-09-17T06:38:30.117Z,10.20
2022-09-17T06:40:59.960Z,10.20
2022-09-17T06:43:28.909Z,10.20
2022-09-17T06:45:58.889Z,10.20
2022-09-17T06:48:28.364Z,10.20
2022-09-17T06:50:57.828Z,10.20
2022-09-17T06:53:26.624Z,10.20
2022-09-17T06:56:05.212Z,10.20
2022-09-17T06:58:37.107Z,10.20
2022-09-17T07:01:06.014Z,10.30
2022-09-17T07:03:34.997Z,10.30
2022-09-17T07:06:03.393Z,10.40
2022-09-17T07:08:34.676Z,10.50
2022-09-17T07:11:04.467Z,10.70
2022-09-17T07:13:33.413Z,10.80
2022-09-17T07:16:03.540Z,10.80
2022-09-17T07:18:32.650Z,10.80
2022-09-17T07:21:02.748Z,10.90
2022-09-17T07:23:33.404Z,11.00
2022-09-17T07:26:05.083Z,11.10
2022-09-17T07:28:33.894Z,11.30
2022-09-17T07:31:05.625Z,11.50
2022-09-17T07:33:35.554Z,11.60
2022-09-17T07:36:07.271Z,11.70
2022-09-17T07:38:35.936Z,11.80
2022-09-17T07:41:07.741Z,11.80
2022-09-17T07:43:36.877Z,11.90
2022-09-17T07:46:07.332Z,11.90
2022-09-17T07:48:35.986Z,12.00
2022-09-17T07:51:04.263Z,12.10
2022-09-17T07:53:33.364Z,12.30
2022-09-17T07:56:02.392Z,12.30
2022-09-17T07:58:34.219Z,12.20
2022-09-17T08:01:03.268Z,12.20
2022-09-17T08:03:32.036Z,12.30
2022-09-17T08:06:05.158Z,12.40
2022-09-17T08:08:36.023Z,12.50
2022-09-17T08:11:04.900Z,12.50
2022-09-17T08:13:35.473Z,12.50
2022-09-17T08:16:06.171Z,12.50
2022-09-17T08:18:35.993Z,12.60
2022-09-17T08:21:05.904Z,12.80
2022-09-17T08:23:37.259Z,12.80
2022-09-17T08:26:08.514Z,12.90
2022-09-17T08:28:38.641Z,12.90
2022-09-17T08:31:09.215Z,12.90
2022-09-17T08:33:38.489Z,13.10
2022-09-17T08:36:08.937Z,13.10
2022-09-17T08:38:38.995Z,13.10
2022-09-17T08:41:21.833Z,12.90
2022-09-17T08:43:57.983Z,12.70
2022-09-17T08:46:27.635Z,12.50
2022-09-17T08:49:09.389Z,12.40
2022-09-17T08:51:53.344Z,12.30
2022-09-17T08:54:29.508Z,12.20
2022-09-17T08:57:10.781Z,12.10
2022-09-17T08:59:48.744Z,12.10
2022-09-17T09:02:30.733Z,12.00
2022-09-17T09:05:03.942Z,11.90
2022-09-17T09:07:38.980Z,11.90
2022-09-17T09:10:16.718Z,11.80
2022-09-17T09:12:45.692Z,11.70
2022-09-17T09:15:30.481Z,11.70
2022-09-17T09:18:03.106Z,11.70
2022-09-17T09:20:41.232Z,11.70
2022-09-17T09:23:15.859Z,11.70
2022-09-17T09:26:00.748Z,11.60
2022-09-17T09:29:04.848Z,11.70
2022-09-17T09:31:51.607Z,11.70
2022-09-17T09:34:20.404Z,11.60
2022-09-17T09:36:50.629Z,11.70
2022-09-17T09:39:23.821Z,11.70
2022-09-17T09:41:56.706Z,11.80
2022-09-17T09:44:27.234Z,11.80
2022-09-17T09:47:15.765Z,11.90
2022-09-17T09:49:58.469Z,11.90
2022-09-17T09:52:50.305Z,12.00
2022-09-17T09:55:34.140Z,11.90
2022-09-17T09:58:12.046Z,11.80
2022-09-17T10:00:42.906Z,11.70
2022-09-17T10:03:18.232Z,11.60
2022-09-17T10:05:55.096Z,11.50
2022-09-17T10:08:24.733Z,11.50
2022-09-17T10:10:56.652Z,11.50
2022-09-17T10:13:26.288Z,11.50
2022-09-17T10:15:54.826Z,11.50
2022-09-17T10:18:27.855Z,11.50
2022-09-17T10:20:59.367Z,11.50
2022-09-17T10:23:30.187Z,11.50
2022-09-17T10:25:58.785Z,11.50
2022-09-17T10:28:41.238Z,11.40
2022-09-17T10:31:11.341Z,11.40
2022-09-17T10:33:51.759Z,11.40
2022-09-17T10:36:41.570Z,11.40
2022-09-17T10:39:34.489Z,11.40
2022-09-17T10:42:04.735Z,11.40
2022-09-17T10:44:36.224Z,11.30
2022-09-17T10:47:09.216Z,11.20
2022-09-17T10:49:43.390Z,11.00
2022-09-17T10:52:21.097Z,10.90
2022-09-17T10:55:16.449Z,10.90
2022-09-17T10:58:14.638Z,10.90
2022-09-17T11:01:01.366Z,10.90
2022-09-17T11:04:09.502Z,11.00
2022-09-17T11:06:57.547Z,11.10
2022-09-17T11:09:34.725Z,11.20
2022-09-17T11:12:18.557Z,11.30
2022-09-17T11:14:52.253Z,11.30
2022-09-17T11:17:47.051Z,11.50
2022-09-17T11:20:25.723Z,11.60
2022-09-17T11:23:06.145Z,11.60
2022-09-17T11:25:47.853Z,11.60
2022-09-17T11:28:39.073Z,11.50
2022-09-17T11:31:24.420Z,11.40
2022-09-17T11:34:20.629Z,11.30
2022-09-17T11:36:56.812Z,11.30
2022-09-17T11:39:31.303Z,11.50
2022-09-17T11:42:03.900Z,11.60
2022-09-17T11:44:40.057Z,11.70
2022-09-17T11:47:14.677Z,11.80
2022-09-17T11:49:50.765Z,11.80
2022-09-17T11:52:23.306Z,11.90
2022-09-17T11:54:59.053Z,11.90
2022-09-17T11:57:32.781Z,11.90
2022-09-17T12:00:08.029Z,11.90
2022-09-17T12:02:53.022Z,11.80
2022-09-17T12:05:27.280Z,11.70
2022-09-17T12:08:00.706Z,11.60
2022-09-17T12:10:45.247Z,11.50
2022-09-17T12:13:44.877Z,11.50
2022-09-17T12:16:17.949Z,11.70
2022-09-17T12:18:54.076Z,11.90
2022-09-17T12:21:26.700Z,12.00
2022-09-17T12:23:59.197Z,11.90
2022-09-17T12:26:47.904Z,11.90
2022-09-17T12:29:31.836Z,11.80
2022-09-17T12:32:05.625Z,11.80
2022-09-17T12:34:45.933Z,11.70
2022-09-17T12:37:24.025Z,11.80
2022-09-17T12:40:17.117Z,11.80
2022-09-17T12:43:06.005Z,11.80
2022-09-17T12:45:58.008Z,11.70
2022-09-17T12:49:09.044Z,11.70
2022-09-17T12:51:46.187Z,11.80
2022-09-17T12:54:28.575Z,11.70
2022-09-17T12:57:07.876Z,11.70
2022-09-17T12:59:44.099Z,11.70
2022-09-17T13:02:20.465Z,11.70
2022-09-17T13:05:22.599Z,11.70
2022-09-17T13:08:18.190Z,11.70
2022-09-17T13:11:11.408Z,12.00
2022-09-17T13:13:49.926Z,12.20
2022-09-17T13:16:24.160Z,12.20
2022-09-17T13:19:15.520Z,12.40
2022-09-17T13:21:54.726Z,12.80
2022-09-17T13:24:25.527Z,12.90
2022-09-17T13:26:56.251Z,12.90
2022-09-17T13:29:59.145Z,12.80
2022-09-17T13:32:48.653Z,12.60
2022-09-17T13:35:51.799Z,12.50
2022-09-17T13:38:24.055Z,12.40
2022-09-17T13:40:53.940Z,12.40
2022-09-17T13:43:28.012Z,12.50
2022-09-17T13:46:12.817Z,12.60
2022-09-17T13:49:00.873Z,12.70
2022-09-17T13:51:55.218Z,14.00
2022-09-17T13:54:36.500Z,15.30
2022-09-17T13:57:12.462Z,16.10
2022-09-17T13:59:54.736Z,17.10
2022-09-17T14:02:38.060Z,18.50
2022-09-17T14:05:35.906Z,19.30
2022-09-17T14:08:14.033Z,18.90
2022-09-17T14:10:45.279Z,18.50
2022-09-17T14:13:30.205Z,18.00
2022-09-17T14:16:03.029Z,17.40
2022-09-17T14:18:37.318Z,16.70
2022-09-17T14:21:28.574Z,15.90
2022-09-17T14:23:59.071Z,15.40
2022-09-17T14:26:40.835Z,15.10
2022-09-17T14:29:19.842Z,14.70
2022-09-17T14:31:49.359Z,14.40
2022-09-17T14:34:22.169Z,14.20
2022-09-17T14:36:54.322Z,14.00
2022-09-17T14:39:24.846Z,13.80
2022-09-17T14:41:55.815Z,13.60
2022-09-17T14:44:26.690Z,13.50
2022-09-17T14:46:59.041Z,13.40
2022-09-17T14:49:29.139Z,13.40
2022-09-17T14:52:00.173Z,13.30
2022-09-17T14:54:33.663Z,13.20
2022-09-17T14:57:13.827Z,13.10
2022-09-17T14:59:49.675Z,13.00
2022-09-17T15:02:37.038Z,12.90
2022-09-17T15:05:18.805Z,12.90
2022-09-17T15:07:49.003Z,12.80
2022-09-17T15:10:20.458Z,12.70
2022-09-17T15:12:50.998Z,12.60
2022-09-17T15:15:23.461Z,12.40
2022-09-17T15:17:53.610Z,12.30
2022-09-17T15:20:24.548Z,12.30
2022-09-17T15:23:02.439Z,12.20
2022-09-17T15:25:32.342Z,12.10
2022-09-17T15:28:10.593Z,12.00
2022-09-17T15:30:39.125Z,11.80
2022-09-17T15:33:12.084Z,11.70
2022-09-17T15:35:41.094Z,11.60
2022-09-17T15:38:27.880Z,11.60
2022-09-17T15:40:57.189Z,11.50
2022-09-17T15:43:29.005Z,11.50
2022-09-17T15:45:59.119Z,11.50
2022-09-17T15:48:38.702Z,11.40
2022-09-17T15:51:16.173Z,11.50
2022-09-17T15:53:54.935Z,11.50
2022-09-17T15:56:25.811Z,11.50
2022-09-17T15:58:58.338Z,11.40
2022-09-17T16:01:51.876Z,11.40
2022-09-17T16:04:31.854Z,11.40
2022-09-17T16:07:04.163Z,11.40
2022-09-17T16:09:50.138Z,11.30
2022-09-17T16:12:19.935Z,11.30
2022-09-17T16:14:50.879Z,11.30
2022-09-17T16:17:24.809Z,11.30
2022-09-17T16:20:00.432Z,11.30
2022-09-17T16:22:32.373Z,11.20
2022-09-17T16:25:02.665Z,11.20
2022-09-17T16:27:36.708Z,11.10
2022-09-17T16:30:09.600Z,11.10
2022-09-17T16:32:37.903Z,11.00
2022-09-17T16:35:06.867Z,11.00
2022-09-17T16:37:35.753Z,11.00
2022-09-17T16:40:06.283Z,11.00
2022-09-17T16:42:34.943Z,11.00
2022-09-17T16:45:04.222Z,11.00
2022-09-17T16:47:37.333Z,11.00
2022-09-17T16:50:08.097Z,10.90
2022-09-17T16:52:37.726Z,10.90
2022-09-17T16:55:08.834Z,10.80
2022-09-17T16:57:39.023Z,10.80
2022-09-17T17:00:11.223Z,10.80
2022-09-17T17:02:40.053Z,10.70
2022-09-17T17:05:10.528Z,10.70
2022-09-17T17:07:39.095Z,10.60
2022-09-17T17:10:09.964Z,10.60
2022-09-17T17:12:39.177Z,10.50
2022-09-17T17:15:09.160Z,10.50
2022-09-17T17:17:38.161Z,10.50
2022-09-17T17:20:09.411Z,10.40
2022-09-17T17:22:38.537Z,10.40
2022-09-17T17:25:09.447Z,10.30
2022-09-17T17:27:39.496Z,10.30
2022-09-17T17:30:16.488Z,10.20
2022-09-17T17:32:50.360Z,10.10
2022-09-17T17:35:18.812Z,10.10
2022-09-17T17:37:48.591Z,10.10
2022-09-17T17:40:18.864Z,10.00
2022-09-17T17:42:52.254Z,10.00
2022-09-17T17:45:21.053Z,10.00
2022-09-17T17:47:49.351Z,10.00
2022-09-17T17:50:18.751Z,10.00
2022-09-17T17:52:48.657Z,9.90
2022-09-17T17:55:18.795Z,9.90
2022-09-17T17:57:47.178Z,9.80
2022-09-17T18:00:18.554Z,9.80
2022-09-17T18:02:47.014Z,9.80
2022-09-17T18:05:15.704Z,9.80
2022-09-17T18:07:44.245Z,9.80
2022-09-17T18:10:13.446Z,9.80
2022-09-17T18:12:50.092Z,9.70
2022-09-17T18:15:19.178Z,9.60
2022-09-17T18:17:49.951Z,9.60
2022-09-17T18:20:19.613Z,9.50
2022-09-17T18:22:47.978Z,9.50
2022-09-17T18:25:16.400Z,9.50
2022-09-17T18:27:46.591Z,9.40
2022-09-17T18:30:15.341Z,9.40
2022-09-17T18:32:44.448Z,9.30
2022-09-17T18:35:13.644Z,9.30
2022-09-17T18:37:45.817Z,9.20
2022-09-17T18:40:14.201Z,9.20
2022-09-17T18:42:49.481Z,9.20
2022-09-17T18:45:19.538Z,9.20
2022-09-17T18:47:48.240Z,9.20
2022-09-17T18:50:16.734Z,9.20
2022-09-17T18:52:45.208Z,9.20
2022-09-17T18:55:13.704Z,9.20
2022-09-17T18:57:42.267Z,9.20
2022-09-17T19:00:13.128Z,9.30
2022-09-17T19:02:41.371Z,9.30
2022-09-17T19:05:10.475Z,9.20
2022-09-17T19:07:38.789Z,9.20
2022-09-17T19:10:08.163Z,9.20
2022-09-17T19:12:38.073Z,9.30
2022-09-17T19:15:08.663Z,9.30
2022-09-17T19:17:38.460Z,9.30
2022-09-17T19:20:08.038Z,9.40
2022-09-17T19:22:36.297Z,9.40
2022-09-17T19:25:05.258Z,9.40
2022-09-17T19:27:33.583Z,9.40
2022-09-17T19:30:02.050Z,9.50
2022-09-17T19:32:46.594Z,9.50
2022-09-17T19:35:17.584Z,9.50
2022-09-17T19:37:46.329Z,9.60
2022-09-17T19:40:14.659Z,9.60
2022-09-17T19:42:43.569Z,9.60
2022-09-17T19:45:12.255Z,9.60
2022-09-17T19:47:42.128Z,9.70
2022-09-17T19:50:10.935Z,9.70
2022-09-17T19:52:39.699Z,9.60
2022-09-17T19:55:12.594Z,9.70
2022-09-17T19:57:42.420Z,9.70
2022-09-17T20:00:12.128Z,9.80
2022-09-17T20:02:43.040Z,9.70
2022-09-17T20:05:11.706Z,9.70
2022-09-17T20:07:39.968Z,9.70
2022-09-17T20:10:09.333Z,9.80
2022-09-17T20:12:38.753Z,9.70
2022-09-17T20:15:08.771Z,9.70
2022-09-17T20:17:37.073Z,9.70
2022-09-17T20:20:08.604Z,9.80
2022-09-17T20:22:36.980Z,9.70
2022-09-17T20:25:05.975Z,9.50
2022-09-17T20:27:34.992Z,9.40
2022-09-17T20:30:03.342Z,9.30
2022-09-17T20:32:32.722Z,9.30
2022-09-17T20:35:00.998Z,9.20
2022-09-17T20:38:16.114Z,9.20
2022-09-17T20:40:19.918Z,9.20
2022-09-17T20:42:48.630Z,9.20
2022-09-17T20:45:17.112Z,9.20
2022-09-17T20:47:45.670Z,9.30
2022-09-17T20:50:14.457Z,9.30
2022-09-17T20:52:44.180Z,9.30
2022-09-17T20:55:12.899Z,9.30
2022-09-17T20:57:42.072Z,9.30
2022-09-17T21:00:19.136Z,9.30
2022-09-17T21:02:50.797Z,9.30
2022-09-17T21:05:19.792Z,9.30
2022-09-17T21:07:49.397Z,9.20
2022-09-17T21:10:18.160Z,9.30
2022-09-17T21:12:46.548Z,9.20
2022-09-17T21:15:15.175Z,9.10
2022-09-17T21:17:45.358Z,9.10
2022-09-17T21:20:14.494Z,9.10
2022-09-17T21:22:44.010Z,9.00
2022-09-17T21:25:14.334Z,9.00
2022-09-17T21:27:42.716Z,8.90
2022-09-17T21:30:12.416Z,8.90
2022-09-17T21:32:43.813Z,9.00
2022-09-17T21:35:12.146Z,9.00
2022-09-17T21:37:40.809Z,9.00
2022-09-17T21:40:10.636Z,9.00
2022-09-17T21:42:40.938Z,8.90
2022-09-17T21:45:09.837Z,8.80
2022-09-17T21:47:38.640Z,8.70
2022-09-17T21:50:07.873Z,8.70
2022-09-17T21:52:36.700Z,8.70
2022-09-17T21:55:05.373Z,8.80
2022-09-17T21:57:34.165Z,8.80
2022-09-17T22:00:07.585Z,8.80
2022-09-17T22:02:37.209Z,8.70
2022-09-17T22:05:07.177Z,8.70
2022-09-17T22:07:35.775Z,8.70
2022-09-17T22:10:04.348Z,8.60
2022-09-17T22:12:32.941Z,8.70
2022-09-17T22:15:03.210Z,8.80
2022-09-17T22:17:31.959Z,8.70
2022-09-17T22:20:00.756Z,8.70
2022-09-17T22:22:29.645Z,8.70
2022-09-17T22:24:59.020Z,8.60
2022-09-17T22:27:27.391Z,8.60
2022-09-17T22:29:56.224Z,8.50
2022-09-17T22:32:25.910Z,8.60
2022-09-17T22:34:54.869Z,8.60
2022-09-17T22:37:23.182Z,8.60
2022-09-17T22:39:52.021Z,8.70
2022-09-17T22:42:20.390Z,8.60
2022-09-17T22:44:49.137Z,8.50
2022-09-17T22:47:17.508Z,8.50
2022-09-17T22:49:47.486Z,8.40
2022-09-17T22:52:15.792Z,8.30
2022-09-17T22:54:44.386Z,8.30
2022-09-17T22:57:12.905Z,8.30
2022-09-17T22:59:41.685Z,8.30
2022-09-17T23:02:10.336Z,8.30
2022-09-17T23:04:38.689Z,8.20
2022-09-17T23:07:09.097Z,8.30
2022-09-17T23:09:37.850Z,8.30
2022-09-17T23:12:06.764Z,8.30
2022-09-17T23:14:35.263Z,8.30
2022-09-17T23:17:04.008Z,8.30
2022-09-17T23:19:32.304Z,8.30
2022-09-17T23:22:01.049Z,8.40
2022-09-17T23:24:31.927Z,8.40
2022-09-17T23:27:00.686Z,8.40
2022-09-17T23:29:29.028Z,8.40
2022-09-17T23:31:57.908Z,8.40
2022-09-17T23:34:26.188Z,8.40
2022-09-17T23:36:54.835Z,8.30
2022-09-17T23:39:23.596Z,8.40
2022-09-17T23:41:53.260Z,8.40
2022-09-17T23:44:22.066Z,8.40
2022-09-17T23:46:50.297Z,8.40
2022-09-17T23:49:19.072Z,8.40
2022-09-17T23:51:47.387Z,8.40
2022-09-17T23:54:16.619Z,8.50
2022-09-17T23:56:45.133Z,8.50
2022-09-17T23:59:14.907Z,8.40
